Time;durP1;ratioP1;P1;durP2;ratioP2;P2;SDS_P1;SDS_P2;PMS_P1;PMS_P2;Temp;Humidity;BMP_temperature;BMP_pressure;BME280_temperature;BME280_humidity;BME280_pressure;Samples;Min_cycle;Max_cycle;Signal;HPM_P1;HPM_P2
2021/05/05 00:01:04;;;;;;;11.60;1.73;;;6.80;99.90;;;;;;5020677;28;20041;-68
2021/05/05 00:03:30;;;;;;;13.23;1.60;;;6.80;99.90;;;;;;5020275;28;20042;-68
2021/05/05 00:05:57;;;;;;;20.80;1.85;;;6.80;99.90;;;;;;5020110;28;20037;-68
2021/05/05 00:08:23;;;;;;;10.00;1.25;;;6.80;99.90;;;;;;5023704;28;20052;-68
2021/05/05 00:10:50;;;;;;;10.10;1.50;;;6.90;99.90;;;;;;5020708;28;20048;-68
2021/05/05 00:13:16;;;;;;;13.80;2.88;;;6.80;99.90;;;;;;5023991;28;20065;-68
2021/05/05 00:15:43;;;;;;;13.68;1.63;;;6.90;99.90;;;;;;5025984;28;20045;-68
2021/05/05 00:18:08;;;;;;;8.85;1.15;;;6.80;99.90;;;;;;5019439;28;20059;-68
2021/05/05 00:20:34;;;;;;;8.07;1.05;;;6.90;99.90;;;;;;5018939;28;20581;-68
2021/05/05 00:23:00;;;;;;;8.73;1.35;;;6.80;99.90;;;;;;5020127;28;20484;-68
2021/05/05 00:25:26;;;;;;;10.98;1.10;;;6.80;99.90;;;;;;5022880;28;20052;-68
2021/05/05 00:27:52;;;;;;;12.73;1.27;;;6.80;99.90;;;;;;5024413;28;20500;-68
2021/05/05 00:30:20;;;;;;;8.48;1.05;;;6.90;99.90;;;;;;5020086;28;20487;-68
2021/05/05 00:32:46;;;;;;;6.28;1.58;;;6.80;99.90;;;;;;5020126;28;20685;-68
2021/05/05 00:35:13;;;;;;;10.18;1.10;;;6.80;99.90;;;;;;5020870;28;20037;-68
2021/05/05 00:37:40;;;;;;;8.60;0.90;;;6.80;99.90;;;;;;5035618;28;20508;-68
2021/05/05 00:40:06;;;;;;;9.57;1.10;;;6.80;99.90;;;;;;5021806;28;20044;-68
2021/05/05 00:42:33;;;;;;;8.30;1.30;;;6.90;99.90;;;;;;5019304;28;20049;-68
2021/05/05 00:45:00;;;;;;;10.30;1.52;;;6.90;99.90;;;;;;5022727;28;20049;-68
2021/05/05 00:47:26;;;;;;;16.27;1.80;;;6.80;99.90;;;;;;5022636;28;20102;-68
2021/05/05 00:49:53;;;;;;;13.02;2.88;;;6.80;99.90;;;;;;5020205;28;20045;-68
2021/05/05 00:52:20;;;;;;;9.40;1.50;;;6.80;99.90;;;;;;5021549;28;20042;-68
2021/05/05 00:54:46;;;;;;;11.52;1.60;;;6.70;99.90;;;;;;5020934;28;20288;-68
2021/05/05 00:57:13;;;;;;;7.00;1.30;;;6.80;99.90;;;;;;5022780;28;20055;-68
2021/05/05 00:59:39;;;;;;;10.32;1.55;;;6.80;99.90;;;;;;5025033;28;20057;-68
2021/05/05 01:02:05;;;;;;;12.45;1.60;;;6.80;99.90;;;;;;5020407;28;20155;-69
2021/05/05 01:04:31;;;;;;;8.68;1.13;;;6.70;99.90;;;;;;5021698;28;20037;-68
2021/05/05 01:06:59;;;;;;;15.25;2.35;;;6.70;99.90;;;;;;5023237;28;20591;-68
2021/05/05 01:09:27;;;;;;;15.05;1.80;;;6.70;99.90;;;;;;5022122;28;20677;-68
2021/05/05 01:11:54;;;;;;;16.75;2.00;;;6.70;99.90;;;;;;5022305;28;20098;-68
2021/05/05 01:14:21;;;;;;;8.95;1.58;;;6.70;99.90;;;;;;5019426;28;20033;-68
2021/05/05 01:16:48;;;;;;;12.07;1.50;;;6.70;99.90;;;;;;5021645;28;20060;-68
2021/05/05 01:19:14;;;;;;;10.25;1.98;;;6.60;99.90;;;;;;5019781;28;20048;-68
2021/05/05 01:21:41;;;;;;;10.93;1.35;;;6.70;99.90;;;;;;5019294;28;20110;-68
2021/05/05 01:24:08;;;;;;;8.40;1.27;;;6.60;99.90;;;;;;5024300;28;20487;-68
2021/05/05 01:26:33;;;;;;;13.23;1.92;;;6.60;99.90;;;;;;5024830;28;20068;-68
2021/05/05 01:29:01;;;;;;;13.55;1.92;;;6.60;99.90;;;;;;5019991;28;20381;-68
2021/05/05 01:31:27;;;;;;;6.93;1.75;;;6.60;99.90;;;;;;5017600;28;20038;-68
2021/05/05 01:33:54;;;;;;;10.40;1.83;;;6.60;99.90;;;;;;5024058;28;20042;-68
2021/05/05 01:36:21;;;;;;;11.80;1.75;;;6.60;99.90;;;;;;5022236;28;20041;-68
2021/05/05 01:38:48;;;;;;;10.77;1.85;;;6.60;99.90;;;;;;5021816;28;20383;-68
2021/05/05 01:41:15;;;;;;;9.52;1.55;;;6.60;99.90;;;;;;5021014;28;20398;-68
2021/05/05 01:43:41;;;;;;;13.18;2.53;;;6.50;99.90;;;;;;5021153;28;20037;-68
2021/05/05 01:46:07;;;;;;;17.23;2.65;;;6.50;99.90;;;;;;5024827;28;20522;-68
2021/05/05 01:48:33;;;;;;;14.20;2.92;;;6.50;99.90;;;;;;5023305;28;20037;-68
2021/05/05 01:50:58;;;;;;;14.80;2.17;;;6.40;99.90;;;;;;5022200;28;20037;-68
2021/05/05 01:53:24;;;;;;;23.73;2.17;;;6.40;99.90;;;;;;5021354;28;20115;-68
2021/05/05 01:55:50;;;;;;;11.70;2.10;;;6.30;99.90;;;;;;5024222;28;20076;-68
2021/05/05 01:58:16;;;;;;;10.55;1.80;;;6.40;99.90;;;;;;5028524;28;20158;-69
2021/05/05 02:00:42;;;;;;;14.18;3.53;;;6.30;99.90;;;;;;5025739;28;20557;-68
2021/05/05 02:03:09;;;;;;;11.02;1.90;;;6.40;99.90;;;;;;5029358;28;20442;-68
2021/05/05 02:05:35;;;;;;;12.20;1.50;;;6.40;99.90;;;;;;5025982;28;20492;-68
2021/05/05 02:08:01;;;;;;;13.50;1.63;;;6.40;99.90;;;;;;5028135;28;20044;-68
2021/05/05 02:10:27;;;;;;;14.55;1.77;;;6.40;99.90;;;;;;5023091;28;20052;-68
2021/05/05 02:12:53;;;;;;;11.70;1.48;;;6.40;99.90;;;;;;5027280;28;20041;-68
2021/05/05 02:15:20;;;;;;;12.27;1.70;;;6.40;99.90;;;;;;5025692;28;20053;-68
2021/05/05 02:17:47;;;;;;;16.33;2.38;;;6.40;99.90;;;;;;5026058;28;20053;-68
2021/05/05 02:20:14;;;;;;;15.23;2.00;;;6.40;99.90;;;;;;5019655;28;20492;-68
2021/05/05 02:22:40;;;;;;;11.30;1.60;;;6.40;99.90;;;;;;5021811;28;20053;-68
2021/05/05 02:25:08;;;;;;;9.65;1.30;;;6.40;99.90;;;;;;5023529;28;21422;-68
2021/05/05 02:27:39;;;;;;;16.20;2.70;;;6.50;99.90;;;;;;5024804;28;20034;-68
2021/05/05 02:30:07;;;;;;;11.90;1.98;;;6.50;99.90;;;;;;5022977;28;20033;-68
2021/05/05 02:32:35;;;;;;;10.30;1.73;;;6.50;99.90;;;;;;5021894;28;20034;-68
2021/05/05 02:35:01;;;;;;;8.70;1.10;;;6.50;99.90;;;;;;5021244;28;20116;-68
2021/05/05 02:37:27;;;;;;;9.90;1.23;;;6.50;99.90;;;;;;5024069;28;20052;-68
2021/05/05 02:39:54;;;;;;;11.40;1.48;;;6.50;99.90;;;;;;5024392;28;20049;-68
2021/05/05 02:42:20;;;;;;;5.40;0.55;;;6.40;99.90;;;;;;5021908;28;20042;-68
2021/05/05 02:44:48;;;;;;;6.65;1.20;;;6.40;99.90;;;;;;5024318;28;20515;-68
2021/05/05 02:47:16;;;;;;;8.95;1.13;;;6.30;99.90;;;;;;5023540;28;20037;-68
2021/05/05 02:49:42;;;;;;;8.85;1.33;;;6.30;99.90;;;;;;5023738;28;20041;-68
2021/05/05 02:52:07;;;;;;;5.65;1.23;;;6.30;99.90;;;;;;5020390;28;20040;-69
2021/05/05 02:54:34;;;;;;;10.13;1.00;;;6.30;99.90;;;;;;5020714;28;20052;-68
2021/05/05 02:57:00;;;;;;;11.60;2.13;;;6.30;99.90;;;;;;5024080;28;20095;-68
2021/05/05 02:59:26;;;;;;;7.00;1.50;;;6.30;99.90;;;;;;5019673;28;20045;-68
2021/05/05 03:01:54;;;;;;;14.02;1.27;;;6.30;99.90;;;;;;5019407;28;20045;-68
2021/05/05 03:04:19;;;;;;;9.27;1.38;;;6.30;99.90;;;;;;5021614;28;20042;-68
2021/05/05 03:06:45;;;;;;;12.35;2.38;;;6.20;99.90;;;;;;5022838;28;20042;-68
2021/05/05 03:09:14;;;;;;;14.07;1.88;;;6.20;99.90;;;;;;5023743;28;20041;-68
2021/05/05 03:11:39;;;;;;;7.35;1.20;;;6.30;99.90;;;;;;5019217;28;20463;-68
2021/05/05 03:14:05;;;;;;;13.68;1.77;;;6.20;99.90;;;;;;5022708;28;20041;-68
2021/05/05 03:16:31;;;;;;;7.43;1.42;;;6.30;99.90;;;;;;5023900;28;20034;-68
2021/05/05 03:18:57;;;;;;;7.65;1.65;;;6.30;99.90;;;;;;5021826;28;20063;-68
2021/05/05 03:21:23;;;;;;;10.93;1.77;;;6.30;99.90;;;;;;5017811;28;20038;-68
2021/05/05 03:23:49;;;;;;;12.73;2.08;;;6.20;99.90;;;;;;5020578;28;20052;-68
2021/05/05 03:26:20;;;;;;;15.23;2.10;;;6.20;99.90;;;;;;5024016;28;20056;-68
2021/05/05 03:28:46;;;;;;;13.13;2.30;;;6.20;99.90;;;;;;5023898;28;20135;-68
2021/05/05 03:31:12;;;;;;;15.90;2.10;;;6.20;99.90;;;;;;5017956;28;20514;-68
2021/05/05 03:33:37;;;;;;;10.52;1.50;;;6.20;99.90;;;;;;5023830;28;20040;-68
2021/05/05 03:36:04;;;;;;;18.45;3.75;;;6.20;99.90;;;;;;5025696;28;20468;-68
2021/05/05 03:38:30;;;;;;;18.27;2.45;;;6.20;99.90;;;;;;5020887;28;20048;-68
2021/05/05 03:41:00;;;;;;;16.48;2.40;;;6.20;99.90;;;;;;5019730;28;20033;-68
2021/05/05 03:43:27;;;;;;;13.13;2.28;;;6.20;99.90;;;;;;5020182;28;20407;-68
2021/05/05 03:45:53;;;;;;;12.20;1.50;;;6.20;99.90;;;;;;5022178;28;20045;-68
2021/05/05 03:48:22;;;;;;;13.10;1.90;;;6.10;99.90;;;;;;5024277;28;20033;-68
2021/05/05 03:50:48;;;;;;;12.60;2.28;;;6.10;99.90;;;;;;5021476;28;20042;-68
2021/05/05 03:53:14;;;;;;;15.77;2.35;;;6.10;99.90;;;;;;5021776;28;20045;-68
2021/05/05 03:55:39;;;;;;;18.48;4.15;;;6.10;99.90;;;;;;5020950;28;20061;-68
2021/05/05 03:58:05;;;;;;;14.63;1.98;;;6.20;99.90;;;;;;5021696;28;20491;-68
2021/05/05 04:00:31;;;;;;;10.38;1.30;;;6.20;99.90;;;;;;5019250;28;20068;-68
2021/05/05 04:02:57;;;;;;;8.80;1.05;;;6.30;99.90;;;;;;5022153;28;20155;-68
2021/05/05 04:05:22;;;;;;;5.57;0.60;;;6.20;99.90;;;;;;5021108;28;20399;-68
2021/05/05 04:07:48;;;;;;;5.35;1.02;;;6.20;99.90;;;;;;5022471;28;20038;-68
2021/05/05 04:10:14;;;;;;;9.60;1.10;;;6.10;99.90;;;;;;5021714;28;20034;-68
2021/05/05 04:12:40;;;;;;;9.07;1.00;;;6.10;99.90;;;;;;5019753;28;20064;-68
2021/05/05 04:15:07;;;;;;;7.85;1.52;;;6.10;99.90;;;;;;5020905;28;20069;-68
2021/05/05 04:17:35;;;;;;;7.95;1.40;;;6.10;99.90;;;;;;5021794;28;20045;-68
2021/05/05 04:20:03;;;;;;;9.70;1.60;;;6.00;99.90;;;;;;5018889;28;20084;-68
2021/05/05 04:22:32;;;;;;;10.32;1.40;;;6.00;99.90;;;;;;5016159;28;20119;-68
2021/05/05 04:25:02;;;;;;;9.93;1.60;;;6.00;99.90;;;;;;5018286;28;20103;-68
2021/05/05 04:27:28;;;;;;;9.90;1.48;;;6.00;99.90;;;;;;5020695;28;20044;-68
2021/05/05 04:29:54;;;;;;;17.00;2.58;;;6.00;99.90;;;;;;5020468;28;20061;-68
2021/05/05 04:32:21;;;;;;;9.98;1.17;;;6.10;99.90;;;;;;5016521;28;20042;-68
2021/05/05 04:34:46;;;;;;;10.38;2.05;;;6.10;99.90;;;;;;5018166;28;20040;-68
2021/05/05 04:37:12;;;;;;;15.88;2.13;;;6.20;99.90;;;;;;5019838;28;20042;-68
2021/05/05 04:39:38;;;;;;;11.95;1.55;;;6.30;99.90;;;;;;5022906;28;20037;-68
2021/05/05 04:42:05;;;;;;;17.73;1.98;;;6.30;99.90;;;;;;5016056;28;20056;-68
2021/05/05 04:44:32;;;;;;;8.13;1.65;;;6.40;99.90;;;;;;5022477;28;20052;-68
2021/05/05 04:46:58;;;;;;;9.00;1.42;;;6.40;99.90;;;;;;5021425;28;20499;-68
2021/05/05 04:49:24;;;;;;;11.15;1.88;;;6.50;99.90;;;;;;5018519;28;20038;-68
2021/05/05 04:51:49;;;;;;;12.85;1.92;;;6.50;99.90;;;;;;5021238;28;20488;-68
2021/05/05 04:54:15;;;;;;;12.55;1.85;;;6.50;99.90;;;;;;5024506;28;20041;-68
2021/05/05 04:56:41;;;;;;;11.70;1.80;;;6.50;99.90;;;;;;5022134;28;20083;-68
2021/05/05 04:59:07;;;;;;;13.15;1.85;;;6.60;99.90;;;;;;5022545;28;20801;-68
2021/05/05 05:01:32;;;;;;;14.02;2.42;;;6.70;99.90;;;;;;5020996;28;20133;-68
2021/05/05 05:03:59;;;;;;;18.30;3.15;;;7.00;99.90;;;;;;5023812;28;20053;-68
2021/05/05 05:06:25;;;;;;;12.48;2.67;;;7.40;99.90;;;;;;5023337;28;20500;-68
2021/05/05 05:08:51;;;;;;;13.45;2.28;;;7.90;99.90;;;;;;5024223;28;20046;-68
2021/05/05 05:11:16;;;;;;;14.25;1.75;;;8.80;99.90;;;;;;5022290;28;20045;-68
2021/05/05 05:13:43;;;;;;;10.23;2.47;;;9.60;98.90;;;;;;5022499;28;20046;-68
2021/05/05 05:16:09;;;;;;;13.02;2.40;;;10.00;97.50;;;;;;5018363;28;20051;-68
2021/05/05 05:18:35;;;;;;;11.38;2.10;;;10.00;96.00;;;;;;5020884;28;20055;-68
2021/05/05 05:21:03;;;;;;;21.17;3.10;;;9.70;96.20;;;;;;5020000;28;20046;-68
2021/05/05 05:23:29;;;;;;;20.13;3.65;;;9.40;96.40;;;;;;5022976;28;20037;-68
2021/05/05 05:25:56;;;;;;;11.65;3.05;;;9.20;96.60;;;;;;5020043;28;20136;-68
2021/05/05 05:28:23;;;;;;;19.75;3.20;;;9.10;97.00;;;;;;5020423;28;20120;-68
2021/05/05 05:30:49;;;;;;;16.67;2.50;;;9.00;97.10;;;;;;5015801;28;20052;-68
2021/05/05 05:33:15;;;;;;;17.92;2.65;;;8.80;96.80;;;;;;5025727;28;20056;-68
2021/05/05 05:35:41;;;;;;;11.32;2.47;;;8.80;97.20;;;;;;5023605;28;20727;-68
2021/05/05 05:38:06;;;;;;;17.70;2.85;;;8.70;97.20;;;;;;5025202;28;20068;-68
2021/05/05 05:40:33;;;;;;;15.38;3.00;;;8.60;97.40;;;;;;5022787;28;20041;-68
2021/05/05 05:42:59;;;;;;;21.58;3.75;;;8.50;97.70;;;;;;5027152;28;20045;-68
2021/05/05 05:45:25;;;;;;;17.65;3.38;;;8.30;97.50;;;;;;5021371;28;20411;-68
2021/05/05 05:47:50;;;;;;;18.05;2.72;;;8.20;97.70;;;;;;5027047;28;20071;-68
2021/05/05 05:50:17;;;;;;;18.15;2.10;;;8.10;97.70;;;;;;5023978;28;20040;-68
2021/05/05 05:52:43;;;;;;;14.10;2.45;;;8.00;98.00;;;;;;5022643;28;20037;-68
2021/05/05 05:55:10;;;;;;;20.30;2.92;;;8.00;98.30;;;;;;5025302;28;20049;-68
2021/05/05 05:57:37;;;;;;;22.58;2.95;;;8.00;98.50;;;;;;5022381;28;20128;-68
2021/05/05 06:00:06;;;;;;;15.18;2.53;;;8.00;98.50;;;;;;5023591;28;20095;-68
2021/05/05 06:02:32;;;;;;;18.20;3.10;;;8.10;98.60;;;;;;5022345;28;20041;-68
2021/05/05 06:04:58;;;;;;;17.83;2.88;;;8.10;98.20;;;;;;5023986;28;20530;-68
2021/05/05 06:07:23;;;;;;;13.82;1.88;;;8.10;98.30;;;;;;5023657;28;20481;-68
2021/05/05 06:09:49;;;;;;;11.15;2.13;;;8.10;97.80;;;;;;5024628;28;20068;-68
2021/05/05 06:12:21;;;;;;;12.27;2.30;;;8.10;98.00;;;;;;5023638;28;20048;-68
2021/05/05 06:14:47;;;;;;;14.50;2.30;;;8.20;98.20;;;;;;5024167;28;20135;-68
2021/05/05 06:17:13;;;;;;;13.68;1.80;;;8.30;97.80;;;;;;5026376;28;20488;-68
2021/05/05 06:19:39;;;;;;;12.35;1.95;;;8.40;97.50;;;;;;5026831;28;20034;-68
2021/05/05 06:22:05;;;;;;;10.85;2.03;;;8.50;97.80;;;;;;5021103;28;20051;-68
2021/05/05 06:24:31;;;;;;;17.65;2.85;;;8.60;97.50;;;;;;5021021;28;20046;-68
2021/05/05 06:26:57;;;;;;;8.98;2.17;;;8.70;98.00;;;;;;5021095;28;20057;-68
2021/05/05 06:29:23;;;;;;;14.50;2.00;;;8.80;97.70;;;;;;5021595;28;20041;-67
2021/05/05 06:31:48;;;;;;;10.52;1.83;;;8.80;97.80;;;;;;5018349;28;20227;-67
2021/05/05 06:34:14;;;;;;;13.35;2.20;;;8.90;97.00;;;;;;5021907;28;20045;-67
2021/05/05 06:36:40;;;;;;;17.13;2.45;;;9.00;97.50;;;;;;5020794;28;20080;-68
2021/05/05 06:39:08;;;;;;;12.70;2.20;;;9.10;97.30;;;;;;5024211;28;20049;-68
2021/05/05 06:41:38;;;;;;;11.25;2.08;;;9.30;96.40;;;;;;5019462;28;20038;-67
2021/05/05 06:44:04;;;;;;;9.60;1.60;;;9.40;96.70;;;;;;5019171;28;20060;-68
2021/05/05 06:46:31;;;;;;;16.15;1.70;;;9.50;96.50;;;;;;5021350;28;20145;-68
2021/05/05 06:48:58;;;;;;;12.38;1.92;;;9.70;96.50;;;;;;5020535;28;20050;-68
2021/05/05 06:51:24;;;;;;;13.95;1.63;;;9.90;96.30;;;;;;5017378;28;20033;-68
2021/05/05 06:53:49;;;;;;;7.28;1.42;;;10.00;95.80;;;;;;5021653;28;20056;-67
2021/05/05 06:56:15;;;;;;;11.90;2.58;;;10.20;94.70;;;;;;5021377;28;21079;-68
2021/05/05 06:58:41;;;;;;;14.23;2.17;;;10.30;94.90;;;;;;5021979;28;20047;-68
2021/05/05 07:01:07;;;;;;;10.13;1.50;;;10.40;95.00;;;;;;5020707;28;20393;-68
2021/05/05 07:03:33;;;;;;;10.18;2.05;;;10.50;94.40;;;;;;5026352;28;20492;-67
2021/05/05 07:05:59;;;;;;;15.07;2.38;;;10.50;94.00;;;;;;5026432;28;20058;-68
2021/05/05 07:08:25;;;;;;;7.88;1.70;;;10.50;93.70;;;;;;5026971;28;20506;-67
2021/05/05 07:10:51;;;;;;;11.60;2.22;;;10.80;94.60;;;;;;5023106;28;20125;-68
2021/05/05 07:13:17;;;;;;;10.55;2.20;;;10.90;94.10;;;;;;5024287;28;20112;-68
2021/05/05 07:15:43;;;;;;;12.60;2.05;;;11.10;93.30;;;;;;5024071;28;20087;-68
2021/05/05 07:18:08;;;;;;;9.52;1.83;;;11.30;92.80;;;;;;5026918;28;20423;-68
2021/05/05 07:20:35;;;;;;;14.30;2.65;;;11.30;92.40;;;;;;5021578;28;20769;-68
2021/05/05 07:23:01;;;;;;;13.82;1.63;;;11.70;92.40;;;;;;5026919;28;20053;-68
2021/05/05 07:25:28;;;;;;;16.27;2.55;;;11.90;91.60;;;;;;5025613;28;20045;-68
2021/05/05 07:27:53;;;;;;;13.32;2.47;;;12.10;91.90;;;;;;5026448;28;20051;-68
2021/05/05 07:30:20;;;;;;;16.08;2.63;;;12.40;92.10;;;;;;5022779;28;20049;-68
2021/05/05 07:32:47;;;;;;;7.55;1.50;;;12.60;91.20;;;;;;5023850;28;20045;-68
2021/05/05 07:35:15;;;;;;;14.05;2.03;;;12.70;90.80;;;;;;5022712;28;20046;-68
2021/05/05 07:48:09;;;;;;;10.18;2.28;;;11.70;91.20;;;;;;5025085;28;20065;-68
2021/05/05 07:50:35;;;;;;;11.07;1.80;;;11.70;90.80;;;;;;5022790;28;20046;-69
2021/05/05 07:53:02;;;;;;;12.93;2.72;;;11.90;91.20;;;;;;5021735;28;20076;-68
2021/05/05 07:55:28;;;;;;;13.38;2.17;;;12.40;91.90;;;;;;5024387;28;20415;-69
2021/05/05 07:57:54;;;;;;;23.33;3.42;;;12.50;90.60;;;;;;5024151;28;21213;-69
2021/05/05 08:00:21;;;;;;;20.40;3.15;;;12.50;90.80;;;;;;5023538;28;20045;-69
2021/05/05 08:02:47;;;;;;;28.48;4.28;;;12.50;90.90;;;;;;5023728;28;20095;-69
2021/05/05 08:05:12;;;;;;;12.38;2.70;;;12.40;90.90;;;;;;5024053;28;20160;-70
2021/05/05 08:07:38;;;;;;;9.70;1.70;;;12.00;90.50;;;;;;5026817;28;20054;-68
2021/05/05 08:10:06;;;;;;;11.82;2.97;;;11.60;91.20;;;;;;5024563;28;20041;-69
2021/05/05 08:12:32;;;;;;;15.30;2.30;;;11.40;92.00;;;;;;5038056;28;20547;-69
2021/05/05 08:14:57;;;;;;;11.57;2.40;;;11.20;92.90;;;;;;5023476;28;20132;-69
2021/05/05 08:17:23;;;;;;;8.43;1.85;;;11.30;93.30;;;;;;5025270;28;20043;-69
2021/05/05 08:19:49;;;;;;;13.75;2.40;;;11.40;92.80;;;;;;5026796;28;20042;-69
2021/05/05 08:22:14;;;;;;;32.75;4.45;;;11.40;92.90;;;;;;5021422;28;20033;-70
2021/05/05 08:24:41;;;;;;;10.70;2.17;;;11.50;93.20;;;;;;5022240;28;20046;-69
2021/05/05 08:27:08;;;;;;;10.55;2.00;;;11.30;92.80;;;;;;5025066;28;20467;-68
2021/05/05 08:29:34;;;;;;;3.33;0.40;;;11.00;93.40;;;;;;5026154;28;20052;-69
2021/05/05 08:32:00;;;;;;;3.35;0.60;;;10.50;93.20;;;;;;5024085;28;20049;-68
2021/05/05 08:34:26;;;;;;;4.15;0.68;;;9.90;93.80;;;;;;5026351;28;20114;-68
2021/05/05 08:36:53;;;;;;;5.13;0.65;;;9.50;94.50;;;;;;5039490;28;20045;-68
2021/05/05 08:39:19;;;;;;;3.58;0.70;;;9.20;95.70;;;;;;5026615;28;20041;-69
2021/05/05 08:41:45;;;;;;;3.50;0.50;;;9.10;96.10;;;;;;5021888;28;20091;-69
2021/05/05 08:44:13;;;;;;;6.30;0.80;;;9.00;96.90;;;;;;5024893;28;20072;-68
2021/05/05 08:46:43;;;;;;;9.68;1.38;;;9.00;97.30;;;;;;5022993;28;20091;-68
2021/05/05 08:49:10;;;;;;;5.25;0.90;;;9.00;97.60;;;;;;5022386;28;20109;-69
2021/05/05 08:51:37;;;;;;;7.10;1.08;;;9.10;97.70;;;;;;5021042;28;20049;-68
2021/05/05 08:54:07;;;;;;;6.72;0.95;;;9.20;97.90;;;;;;5022156;28;20033;-68
2021/05/05 08:56:35;;;;;;;5.65;1.10;;;9.30;98.00;;;;;;5025077;28;20119;-69
2021/05/05 08:59:07;;;;;;;7.57;1.02;;;9.30;97.90;;;;;;5023140;28;20131;-68
2021/05/05 09:01:33;;;;;;;6.97;1.33;;;9.50;98.70;;;;;;5022055;28;20570;-68
2021/05/05 09:03:59;;;;;;;6.90;0.90;;;9.50;98.50;;;;;;5026596;28;20120;-68
2021/05/05 09:06:54;;;;;;;6.35;1.00;;;9.60;98.50;;;;;;5020295;28;20484;-68
2021/05/05 09:09:44;;;;;;;8.98;0.80;;;9.70;98.50;;;;;;5035876;28;20037;-68
2021/05/05 09:12:24;;;;;;;8.93;1.38;;;9.60;97.90;;;;;;5020375;28;20037;-68
2021/05/05 09:15:02;;;;;;;10.65;1.17;;;9.40;98.00;;;;;;5019035;28;20076;-68
2021/05/05 09:17:36;;;;;;;12.25;1.48;;;9.10;98.10;;;;;;5021113;28;20392;-68
2021/05/05 09:20:07;;;;;;;9.68;1.30;;;9.10;98.90;;;;;;5018858;28;20550;-68
2021/05/05 09:22:43;;;;;;;11.85;2.35;;;9.20;99.50;;;;;;5016571;28;20045;-68
2021/05/05 09:25:20;;;;;;;18.67;3.60;;;9.50;99.60;;;;;;5018065;28;20053;-68
2021/05/05 09:28:06;;;;;;;23.10;2.92;;;9.70;99.40;;;;;;5022627;28;20097;-70
2021/05/05 09:30:32;;;;;;;20.60;2.38;;;9.90;99.40;;;;;;5019959;28;20084;-68
2021/05/05 09:32:57;;;;;;;24.05;3.05;;;10.10;99.20;;;;;;5018882;28;20468;-68
2021/05/05 09:35:53;;;;;;;13.50;2.30;;;10.10;98.60;;;;;;5018664;28;20041;-68
2021/05/05 09:38:19;;;;;;;8.48;1.85;;;9.90;97.40;;;;;;5018501;28;20084;-68
2021/05/05 09:40:58;;;;;;;7.43;0.98;;;9.50;96.80;;;;;;5016581;28;20112;-68
2021/05/05 09:43:24;;;;;;;11.43;2.45;;;9.30;97.70;;;;;;5022378;28;20038;-68
2021/05/05 09:45:51;;;;;;;11.13;1.60;;;9.40;98.10;;;;;;5020398;28;20030;-68
2021/05/05 09:48:24;;;;;;;10.45;1.60;;;9.50;98.60;;;;;;5018814;28;20063;-68
2021/05/05 09:50:58;;;;;;;12.48;1.95;;;9.40;98.50;;;;;;5019263;28;20050;-68
2021/05/05 09:53:28;;;;;;;8.30;1.25;;;9.40;98.30;;;;;;5021826;28;20029;-68
2021/05/05 09:55:57;;;;;;;7.75;1.30;;;9.50;99.20;;;;;;5021572;28;20385;-68
2021/05/05 09:58:24;;;;;;;10.60;1.42;;;9.90;99.30;;;;;;5023861;28;20072;-68
2021/05/05 10:01:05;;;;;;;7.60;1.33;;;10.40;98.30;;;;;;5020660;28;20139;-68
2021/05/05 10:03:37;;;;;;;8.88;1.05;;;10.50;96.50;;;;;;5022592;28;20041;-68
2021/05/05 10:06:33;;;;;;;2.30;0.50;;;10.10;94.50;;;;;;5020548;28;20042;-68
2021/05/05 10:09:03;;;;;;;7.13;0.77;;;9.40;95.80;;;;;;5019019;28;20048;-68
2021/05/05 10:11:46;;;;;;;5.18;0.70;;;8.80;96.30;;;;;;5017477;28;20080;-68
2021/05/05 10:14:14;;;;;;;6.88;1.10;;;8.70;97.20;;;;;;5022574;28;20038;-68
2021/05/05 10:16:42;;;;;;;7.20;0.82;;;8.70;98.10;;;;;;5020562;28;20045;-68
2021/05/05 10:19:13;;;;;;;9.73;1.60;;;8.80;98.80;;;;;;5025833;28;20091;-68
2021/05/05 10:21:43;;;;;;;10.55;1.58;;;9.10;99.60;;;;;;5023568;28;20163;-68
2021/05/05 10:24:09;;;;;;;8.80;1.77;;;9.50;99.70;;;;;;5026810;28;20041;-68
2021/05/05 10:26:36;;;;;;;10.70;2.15;;;9.70;98.90;;;;;;5025365;28;20120;-68
2021/05/05 10:29:04;;;;;;;13.57;1.80;;;9.90;99.10;;;;;;5026704;28;20037;-68
2021/05/05 10:31:30;;;;;;;11.38;1.77;;;10.30;98.90;;;;;;5021971;28;20037;-68
2021/05/05 10:33:58;;;;;;;17.83;2.40;;;10.60;98.50;;;;;;5023718;28;20037;-68
2021/05/05 10:36:38;;;;;;;8.40;1.65;;;10.90;97.60;;;;;;5023277;28;20049;-68
2021/05/05 10:39:20;;;;;;;12.95;1.77;;;10.90;96.60;;;;;;5023332;28;20395;-68
2021/05/05 10:42:01;;;;;;;7.38;1.55;;;11.10;95.90;;;;;;5020847;28;20097;-68
2021/05/05 10:44:58;;;;;;;11.75;1.75;;;11.20;96.60;;;;;;5027867;28;20611;-68
2021/05/05 10:47:35;;;;;;;5.65;1.15;;;11.30;95.30;;;;;;5022418;28;20052;-68
2021/05/05 10:50:02;;;;;;;10.93;1.55;;;11.20;95.10;;;;;;5022870;28;20060;-68
2021/05/05 10:52:29;;;;;;;8.82;1.70;;;11.10;94.20;;;;;;5018060;28;20046;-68
2021/05/05 10:54:59;;;;;;;9.90;3.10;;;11.10;95.30;;;;;;5021456;28;20058;-68
2021/05/05 10:57:26;;;;;;;12.65;1.67;;;11.30;94.60;;;;;;5019768;28;20183;-68
2021/05/05 10:59:58;;;;;;;8.35;1.27;;;11.50;95.10;;;;;;5020799;28;20033;-68
2021/05/05 11:02:38;;;;;;;9.63;1.98;;;11.60;95.10;;;;;;5018154;28;20046;-68
2021/05/05 11:05:10;;;;;;;8.70;1.70;;;11.50;94.80;;;;;;5021450;28;20037;-68
2021/05/05 11:07:51;;;;;;;9.98;1.45;;;11.60;96.30;;;;;;5020321;28;20041;-68
2021/05/05 11:10:32;;;;;;;11.50;2.58;;;12.00;95.50;;;;;;5022063;28;20715;-68
2021/05/05 11:12:59;;;;;;;8.77;1.77;;;11.90;92.00;;;;;;5024922;28;20112;-68
2021/05/05 11:15:48;;;;;;;8.60;2.38;;;12.20;93.10;;;;;;5024224;28;20588;-68
2021/05/05 11:18:26;;;;;;;11.25;2.08;;;12.30;92.50;;;;;;5019916;28;20064;-68
2021/05/05 11:21:28;;;;;;;13.68;2.30;;;12.10;92.50;;;;;;5018703;28;20079;-68
2021/05/05 11:23:54;;;;;;;12.88;3.67;;;12.30;94.10;;;;;;5023498;28;20038;-68
2021/05/05 11:26:26;;;;;;;11.82;1.95;;;12.50;93.40;;;;;;5027031;28;20037;-68
2021/05/05 11:29:10;;;;;;;12.32;2.10;;;12.70;92.90;;;;;;5024220;28;20046;-68
2021/05/05 11:31:45;;;;;;;10.38;2.20;;;12.70;89.60;;;;;;5022388;28;20125;-68
2021/05/05 11:34:23;;;;;;;14.65;2.30;;;12.80;90.50;;;;;;5022917;28;20437;-68
2021/05/05 11:36:58;;;;;;;13.88;2.08;;;12.40;83.80;;;;;;5024675;28;20442;-68
2021/05/05 11:39:29;;;;;;;9.37;2.23;;;12.40;88.00;;;;;;5023452;28;20045;-68
2021/05/05 11:42:20;;;;;;;12.07;2.47;;;12.10;84.40;;;;;;5019077;28;21018;-68
2021/05/05 11:44:49;;;;;;;9.63;2.42;;;11.90;86.60;;;;;;5023176;28;20037;-68
2021/05/05 11:47:28;;;;;;;13.18;2.38;;;11.70;89.60;;;;;;5024123;28;20417;-68
2021/05/05 11:49:56;;;;;;;14.82;2.45;;;11.80;90.10;;;;;;5026185;28;20049;-68
2021/05/05 11:52:26;;;;;;;10.60;2.95;;;12.00;90.90;;;;;;5021612;28;20057;-68
2021/05/05 11:55:14;;;;;;;14.80;2.63;;;12.20;91.40;;;;;;5024047;28;20049;-68
2021/05/05 11:57:49;;;;;;;9.23;1.98;;;12.60;91.50;;;;;;5019644;28;20034;-68
2021/05/05 12:00:20;;;;;;;15.53;4.37;;;12.70;88.40;;;;;;5024079;28;20037;-68
2021/05/05 12:02:58;;;;;;;15.93;2.22;;;12.80;89.90;;;;;;5022734;28;20045;-68
2021/05/05 12:05:36;;;;;;;14.73;3.60;;;13.00;87.90;;;;;;5021556;28;20160;-69
2021/05/05 12:08:13;;;;;;;11.35;1.98;;;12.90;87.30;;;;;;5022804;28;20243;-68
2021/05/05 12:10:40;;;;;;;15.52;2.88;;;13.00;88.60;;;;;;5020326;28;20072;-68
2021/05/05 12:13:10;;;;;;;12.93;2.40;;;13.00;89.30;;;;;;5020664;28;20063;-69
2021/05/05 12:15:39;;;;;;;14.43;3.30;;;13.20;85.60;;;;;;5024490;28;20033;-69
2021/05/05 12:18:21;;;;;;;17.38;3.42;;;12.90;87.40;;;;;;5026171;28;20049;-69
2021/05/05 12:20:49;;;;;;;14.60;3.00;;;13.10;89.90;;;;;;5021861;28;21428;-69
2021/05/05 12:23:16;;;;;;;10.20;1.80;;;13.40;88.10;;;;;;5022249;28;20049;-68
2021/05/05 12:25:42;;;;;;;13.32;2.83;;;13.70;85.50;;;;;;5024481;28;20039;-69
2021/05/05 12:28:13;;;;;;;10.90;2.33;;;13.80;84.10;;;;;;5025278;28;20048;-69
2021/05/05 12:30:42;;;;;;;19.17;4.28;;;13.90;83.60;;;;;;5020913;28;20045;-69
2021/05/05 12:33:08;;;;;;;13.73;3.10;;;13.70;82.40;;;;;;5023806;28;20072;-68
2021/05/05 12:35:35;;;;;;;13.50;2.67;;;13.50;83.40;;;;;;5025069;28;20124;-69
2021/05/05 12:38:05;;;;;;;15.98;3.15;;;13.70;85.00;;;;;;5021619;28;20033;-69
2021/05/05 12:40:31;;;;;;;12.82;3.50;;;13.60;79.10;;;;;;5022047;28;20040;-68
2021/05/05 12:43:24;;;;;;;18.70;4.25;;;13.30;80.00;;;;;;5024393;28;20040;-69
2021/05/05 12:45:52;;;;;;;17.30;3.83;;;13.10;80.70;;;;;;5021107;28;20053;-68
2021/05/05 12:48:23;;;;;;;15.90;3.03;;;13.00;81.90;;;;;;5024135;28;20048;-68
2021/05/05 12:50:49;;;;;;;17.27;3.17;;;12.80;81.70;;;;;;5022206;28;21406;-69
2021/05/05 12:53:15;;;;;;;19.70;4.07;;;12.60;80.40;;;;;;5024166;28;20040;-68
2021/05/05 12:55:42;;;;;;;15.07;3.22;;;12.20;78.90;;;;;;5024644;28;20041;-69
2021/05/05 12:58:12;;;;;;;15.50;3.13;;;12.30;83.00;;;;;;5022957;28;20033;-68
2021/05/05 13:00:43;;;;;;;10.70;2.50;;;12.40;83.60;;;;;;5023237;28;20041;-69
2021/05/05 13:03:22;;;;;;;12.57;2.90;;;12.60;82.00;;;;;;5024380;28;20041;-68